createdAt,value
2022-12-27T00:00:11.440Z,16.38
2022-12-27T00:02:39.966Z,15.82
2022-12-27T00:05:10.122Z,16.15
2022-12-27T00:07:38.742Z,16.30
2022-12-27T00:10:08.242Z,16.67
2022-12-27T00:12:36.828Z,16.30
2022-12-27T00:15:06.748Z,15.77
2022-12-27T00:17:35.081Z,15.60
2022-12-27T00:20:10.701Z,15.52
2022-12-27T00:22:41.289Z,15.35
2022-12-27T00:25:10.776Z,14.52
2022-12-27T00:27:39.329Z,14.82
2022-12-27T00:30:09.541Z,15.60
2022-12-27T00:32:37.896Z,14.65
2022-12-27T00:35:07.055Z,15.73
2022-12-27T00:37:35.325Z,16.38
2022-12-27T00:40:03.710Z,15.30
2022-12-27T00:42:32.395Z,15.75
2022-12-27T00:45:00.764Z,15.30
2022-12-27T00:47:29.108Z,16.38
2022-12-27T00:49:57.495Z,16.23
2022-12-27T00:52:28.371Z,16.15
2022-12-27T00:54:56.844Z,15.60
2022-12-27T00:57:25.361Z,15.35
2022-12-27T00:59:53.644Z,15.50
2022-12-27T01:02:22.059Z,15.45
2022-12-27T01:04:50.372Z,14.45
2022-12-27T01:07:19.180Z,15.75
2022-12-27T01:09:47.502Z,16.23
2022-12-27T01:12:15.832Z,16.25
2022-12-27T01:14:44.398Z,16.92
2022-12-27T01:17:12.813Z,16.48
2022-12-27T01:19:41.277Z,16.98
2022-12-27T01:22:10.426Z,15.95
2022-12-27T01:24:38.748Z,16.98
2022-12-27T01:27:07.101Z,16.40
2022-12-27T01:29:35.395Z,16.40
2022-12-27T01:32:03.871Z,15.63
2022-12-27T01:34:32.242Z,16.55
2022-12-27T01:37:00.592Z,16.27
2022-12-27T01:39:28.916Z,17.00
2022-12-27T01:42:15.804Z,17.90
2022-12-27T01:44:44.834Z,17.23
2022-12-27T01:47:32.532Z,16.80
2022-12-27T01:50:12.624Z,17.20
2022-12-27T01:52:46.107Z,16.63
2022-12-27T01:55:17.577Z,16.83
2022-12-27T01:57:47.025Z,16.65
2022-12-27T02:00:15.868Z,16.35
2022-12-27T02:02:44.759Z,17.42
2022-12-27T02:05:16.800Z,18.73
2022-12-27T02:08:11.145Z,17.30
2022-12-27T02:10:40.831Z,17.92
2022-12-27T02:13:09.478Z,17.75
2022-12-27T02:15:38.098Z,17.27
2022-12-27T02:18:06.566Z,19.05
2022-12-27T02:21:01.718Z,16.48
2022-12-27T02:24:05.116Z,16.67
2022-12-27T02:26:57.666Z,17.50
2022-12-27T02:29:37.425Z,17.52
2022-12-27T02:32:08.668Z,18.15
2022-12-27T02:34:56.151Z,18.02
2022-12-27T02:37:29.309Z,17.63
2022-12-27T02:40:20.029Z,19.77
2022-12-27T02:43:08.032Z,19.33
2022-12-27T02:46:21.265Z,19.77
2022-12-27T02:49:15.855Z,19.13
2022-12-27T02:52:17.007Z,21.00
2022-12-27T02:55:09.309Z,20.67
2022-12-27T02:58:09.456Z,20.30
2022-12-27T03:01:10.757Z,20.67
2022-12-27T03:04:05.856Z,19.75
2022-12-27T03:06:48.081Z,21.95
2022-12-27T03:09:56.840Z,19.63
2022-12-27T03:12:46.387Z,19.52
2022-12-27T03:15:57.117Z,21.40
2022-12-27T03:18:34.297Z,21.42
2022-12-27T03:21:24.927Z,20.52
2022-12-27T03:24:14.437Z,19.17
2022-12-27T03:26:48.081Z,20.50
2022-12-27T03:29:39.154Z,21.42
2022-12-27T03:32:29.867Z,19.92
2022-12-27T03:35:20.284Z,20.27
2022-12-27T03:38:06.474Z,20.70
2022-12-27T03:41:10.761Z,20.80
2022-12-27T03:43:41.761Z,20.63
2022-12-27T03:46:44.294Z,20.13
2022-12-27T03:49:27.474Z,20.83
2022-12-27T03:52:26.531Z,19.92
2022-12-27T03:54:56.049Z,19.15
2022-12-27T03:57:28.599Z,19.85
2022-12-27T03:59:56.953Z,19.17
2022-12-27T04:02:26.276Z,17.90
2022-12-27T04:04:55.046Z,17.52
2022-12-27T04:07:23.418Z,18.50
2022-12-27T04:10:10.271Z,17.35
2022-12-27T04:12:56.679Z,17.63
2022-12-27T04:15:43.279Z,16.27
2022-12-27T04:18:30.209Z,16.10
2022-12-27T04:21:17.192Z,13.55
2022-12-27T04:24:03.878Z,13.77
2022-12-27T04:26:50.540Z,15.27
2022-12-27T04:29:36.996Z,13.32
2022-12-27T04:32:23.709Z,12.10
2022-12-27T04:34:52.166Z,11.30
2022-12-27T04:37:21.467Z,12.23
2022-12-27T04:40:10.237Z,11.68
2022-12-27T04:42:57.133Z,10.63
2022-12-27T04:45:44.176Z,10.20
2022-12-27T04:48:35.559Z,9.90
2022-12-27T04:51:22.200Z,10.07
2022-12-27T04:54:08.994Z,9.27
2022-12-27T04:56:37.337Z,8.95
2022-12-27T04:59:24.032Z,8.95
2022-12-27T05:02:04.992Z,8.90
2022-12-27T05:04:36.672Z,8.23
2022-12-27T05:07:26.199Z,9.38
2022-12-27T05:10:12.994Z,8.93
2022-12-27T05:12:59.654Z,9.82
2022-12-27T05:15:28.034Z,9.32
2022-12-27T05:17:58.455Z,8.70
2022-12-27T05:20:26.911Z,8.15
2022-12-27T05:23:13.603Z,8.02
2022-12-27T05:25:45.811Z,7.82
2022-12-27T05:28:14.588Z,6.53
2022-12-27T05:30:45.089Z,6.25
2022-12-27T05:33:13.904Z,6.25
2022-12-27T05:35:42.946Z,5.95
2022-12-27T05:38:11.389Z,6.32
2022-12-27T05:40:39.739Z,5.85
2022-12-27T05:43:08.154Z,5.60
2022-12-27T05:45:36.519Z,5.07
2022-12-27T05:48:05.288Z,5.40
2022-12-27T05:50:33.728Z,4.65
2022-12-27T05:53:02.130Z,4.70
2022-12-27T05:55:30.527Z,4.60
2022-12-27T05:57:58.888Z,4.75
2022-12-27T06:00:27.560Z,4.70
2022-12-27T06:02:55.992Z,4.53
2022-12-27T06:05:24.572Z,4.13
2022-12-27T06:07:52.968Z,4.25
2022-12-27T06:10:21.417Z,4.00
2022-12-27T06:12:49.790Z,3.70
2022-12-27T06:15:18.377Z,3.35
2022-12-27T06:17:46.761Z,3.55
2022-12-27T06:20:15.136Z,3.90
2022-12-27T06:22:43.553Z,3.45
2022-12-27T06:25:14.473Z,4.60
2022-12-27T06:27:43.094Z,4.40
2022-12-27T06:30:13.262Z,4.82
2022-12-27T06:32:41.629Z,5.00
2022-12-27T06:35:12.140Z,5.38
2022-12-27T06:37:40.535Z,4.15
2022-12-27T06:40:09.620Z,4.03
2022-12-27T06:42:38.003Z,3.75
2022-12-27T06:45:07.598Z,3.42
2022-12-27T06:47:36.003Z,3.40
2022-12-27T06:50:05.273Z,3.38
2022-12-27T06:52:33.630Z,3.13
2022-12-27T06:55:01.954Z,3.00
2022-12-27T06:57:30.415Z,3.00
2022-12-27T06:59:58.783Z,3.08
2022-12-27T07:02:27.182Z,2.78
2022-12-27T07:04:55.547Z,2.80
2022-12-27T07:07:23.985Z,2.80
2022-12-27T07:09:52.359Z,2.80
2022-12-27T07:12:20.766Z,2.33
2022-12-27T07:14:49.148Z,2.50
2022-12-27T07:17:17.815Z,2.28
2022-12-27T07:19:46.249Z,2.60
2022-12-27T07:22:14.494Z,2.50
2022-12-27T07:24:42.880Z,2.80
2022-12-27T07:27:11.228Z,2.67
2022-12-27T07:29:45.295Z,2.33
2022-12-27T07:34:42.540Z,2.55
2022-12-27T07:37:10.947Z,2.33
2022-12-27T07:39:39.253Z,2.80
2022-12-27T07:42:08.709Z,2.58
2022-12-27T07:44:37.448Z,2.38
2022-12-27T07:47:06.109Z,2.83
2022-12-27T07:49:34.554Z,2.60
2022-12-27T07:52:03.078Z,2.40
2022-12-27T07:54:31.409Z,2.30
2022-12-27T07:56:59.840Z,2.45
2022-12-27T07:59:28.676Z,2.35
2022-12-27T08:02:06.476Z,2.50
2022-12-27T08:04:38.184Z,2.50
2022-12-27T08:07:21.127Z,2.42
2022-12-27T08:09:50.100Z,2.30
2022-12-27T08:12:18.737Z,2.00
2022-12-27T08:14:47.073Z,2.20
2022-12-27T08:17:28.929Z,2.20
2022-12-27T08:19:57.476Z,2.20
2022-12-27T08:22:25.817Z,1.83
2022-12-27T08:24:54.269Z,1.90
2022-12-27T08:27:24.818Z,2.40
2022-12-27T08:29:53.273Z,2.15
2022-12-27T08:32:21.666Z,2.28
2022-12-27T08:34:50.364Z,2.00
2022-12-27T08:37:18.746Z,2.00
2022-12-27T08:39:47.144Z,1.85
2022-12-27T08:42:15.809Z,1.92
2022-12-27T08:44:44.934Z,1.90
2022-12-27T08:47:13.310Z,2.08
2022-12-27T08:49:41.762Z,2.10
2022-12-27T08:52:10.156Z,1.73
2022-12-27T08:54:38.540Z,1.77
2022-12-27T08:57:07.058Z,1.67
2022-12-27T08:59:35.388Z,1.75
2022-12-27T09:02:03.853Z,1.85
2022-12-27T09:04:32.189Z,1.88
2022-12-27T09:07:00.599Z,1.70
2022-12-27T09:09:28.985Z,1.90
2022-12-27T09:11:57.345Z,1.75
2022-12-27T09:14:25.951Z,1.70
2022-12-27T09:16:54.276Z,1.85
2022-12-27T09:19:22.654Z,1.60
2022-12-27T09:21:51.065Z,1.50
2022-12-27T09:24:19.507Z,1.50
2022-12-27T09:26:50.105Z,1.60
2022-12-27T09:29:18.734Z,1.60
2022-12-27T09:31:47.068Z,1.80
2022-12-27T09:34:15.677Z,2.03
2022-12-27T09:36:44.151Z,1.50
2022-12-27T09:39:14.726Z,1.80
2022-12-27T09:44:58.076Z,1.67
2022-12-27T09:47:47.228Z,1.40
2022-12-27T09:50:31.612Z,1.40
2022-12-27T09:53:08.819Z,1.30
2022-12-27T09:55:47.550Z,1.25
2022-12-27T09:58:24.816Z,1.50
2022-12-27T10:00:53.809Z,1.40
2022-12-27T10:03:27.548Z,1.30
2022-12-27T10:06:23.330Z,1.10
2022-12-27T10:09:22.109Z,1.35
2022-12-27T10:12:37.097Z,1.30
2022-12-27T10:15:18.829Z,1.10
2022-12-27T10:18:10.928Z,1.40
2022-12-27T10:21:16.348Z,1.27
2022-12-27T10:23:51.390Z,1.10
2022-12-27T10:26:21.469Z,0.93
2022-12-27T10:29:05.131Z,1.20
2022-12-27T10:31:33.855Z,1.02
2022-12-27T10:34:06.197Z,1.23
2022-12-27T10:36:38.443Z,1.20
2022-12-27T10:39:20.145Z,1.15
2022-12-27T10:42:12.025Z,1.30
2022-12-27T10:44:40.933Z,1.30
2022-12-27T10:47:10.154Z,1.25
2022-12-27T10:49:41.040Z,1.30
2022-12-27T10:52:29.124Z,1.25
2022-12-27T10:54:59.070Z,1.27
2022-12-27T10:57:35.859Z,1.30
2022-12-27T11:00:23.499Z,1.80
2022-12-27T11:03:01.861Z,1.20
2022-12-27T11:05:38.114Z,0.90
2022-12-27T11:08:25.567Z,1.20
2022-12-27T11:11:14.735Z,1.23
2022-12-27T11:13:44.134Z,1.00
2022-12-27T11:16:31.816Z,1.08
2022-12-27T11:19:02.577Z,1.10
2022-12-27T11:21:32.783Z,1.40
2022-12-27T11:24:03.818Z,1.13
2022-12-27T11:26:41.307Z,1.50
2022-12-27T11:29:19.710Z,1.05
2022-12-27T11:31:52.089Z,0.93
2022-12-27T11:34:34.909Z,0.90
2022-12-27T11:37:16.668Z,1.00
2022-12-27T11:39:46.295Z,1.00
2022-12-27T11:42:54.903Z,0.90
2022-12-27T11:45:30.385Z,0.90
2022-12-27T11:48:22.108Z,1.13
2022-12-27T11:50:50.423Z,0.98
2022-12-27T11:53:59.170Z,1.00
2022-12-27T11:56:38.145Z,1.17
2022-12-27T11:59:34.074Z,1.20
2022-12-27T12:02:27.719Z,1.13
2022-12-27T12:05:10.908Z,1.20
2022-12-27T12:07:59.160Z,1.20
2022-12-27T12:10:54.350Z,1.20
2022-12-27T12:13:41.444Z,1.30
2022-12-27T12:16:28.099Z,1.30
2022-12-27T12:19:12.189Z,1.27
2022-12-27T12:22:13.957Z,1.53
2022-12-27T12:24:57.468Z,1.20
2022-12-27T12:27:39.238Z,1.80
2022-12-27T12:30:51.630Z,1.35
2022-12-27T12:33:48.464Z,1.65
2022-12-27T12:37:03.319Z,1.50
2022-12-27T12:39:52.988Z,1.67
2022-12-27T12:42:41.971Z,1.50
2022-12-27T12:45:21.315Z,1.80
2022-12-27T12:48:18.435Z,1.65
2022-12-27T12:51:02.395Z,1.77
2022-12-27T12:53:41.731Z,1.67
2022-12-27T12:56:33.952Z,2.20
2022-12-27T12:59:05.249Z,2.00
2022-12-27T13:02:02.826Z,1.63
2022-12-27T13:04:49.951Z,1.67
2022-12-27T13:07:39.446Z,1.55
2022-12-27T13:10:44.994Z,1.90
2022-12-27T13:13:34.167Z,2.20
2022-12-27T13:16:13.033Z,1.67
2022-12-27T13:19:22.590Z,1.67
2022-12-27T13:22:03.048Z,1.80
2022-12-27T13:24:37.790Z,1.70
2022-12-27T13:27:29.299Z,1.60
2022-12-27T13:30:12.324Z,1.65
2022-12-27T13:32:49.133Z,1.55
2022-12-27T13:35:42.975Z,1.75
2022-12-27T13:38:26.919Z,1.60
2022-12-27T13:41:09.792Z,1.67
2022-12-27T13:43:48.349Z,1.63
2022-12-27T13:46:44.662Z,1.58
2022-12-27T13:49:28.019Z,1.65
2022-12-27T13:52:13.145Z,1.50
2022-12-27T13:54:58.900Z,1.40
2022-12-27T13:57:48.990Z,1.40
2022-12-27T14:00:25.796Z,1.20
2022-12-27T14:03:24.625Z,1.40
2022-12-27T14:06:17.431Z,1.58
2022-12-27T14:09:06.755Z,1.23
2022-12-27T14:11:49.923Z,1.38
2022-12-27T14:14:21.179Z,1.40
2022-12-27T14:17:06.735Z,1.45
2022-12-27T14:19:44.193Z,1.30
2022-12-27T14:22:46.511Z,1.70
2022-12-27T14:25:40.991Z,1.30
2022-12-27T14:28:30.437Z,1.42
2022-12-27T14:31:41.605Z,1.80
2022-12-27T14:34:36.991Z,1.42
